createdAt,value
2019-05-29T00:01:39.365Z,46.70
2019-05-29T00:04:08.040Z,46.70
2019-05-29T00:06:35.682Z,46.70
2019-05-29T00:09:03.154Z,46.70
2019-05-29T00:11:30.632Z,46.70
2019-05-29T00:13:58.099Z,46.60
2019-05-29T00:16:25.561Z,46.60
2019-05-29T00:18:53.035Z,46.70
2019-05-29T00:21:20.510Z,46.60
2019-05-29T00:23:47.986Z,46.70
2019-05-29T00:26:16.561Z,46.60
2019-05-29T00:28:44.106Z,46.50
2019-05-29T00:31:12.216Z,46.50
2019-05-29T00:33:39.727Z,46.50
2019-05-29T00:36:08.220Z,46.50
2019-05-29T00:38:35.742Z,46.40
2019-05-29T00:41:03.210Z,46.40
2019-05-29T00:43:30.677Z,46.40
2019-05-29T00:45:58.154Z,46.50
2019-05-29T00:48:25.640Z,47.00
2019-05-29T00:50:53.101Z,46.50
2019-05-29T00:53:20.578Z,46.60
2019-05-29T00:55:48.046Z,46.70
2019-05-29T00:58:15.510Z,46.80
2019-05-29T01:00:42.985Z,46.90
2019-05-29T01:03:11.556Z,47.00
2019-05-29T01:05:39.132Z,47.00
2019-05-29T01:08:06.616Z,47.00
2019-05-29T01:10:34.099Z,47.00
2019-05-29T01:13:01.566Z,47.00
2019-05-29T01:15:29.029Z,47.00
2019-05-29T01:17:56.492Z,47.10
2019-05-29T01:20:23.963Z,47.10
2019-05-29T01:22:51.490Z,47.30
2019-05-29T01:25:18.983Z,47.40
2019-05-29T01:27:46.442Z,47.30
2019-05-29T01:30:15.030Z,47.40
2019-05-29T01:32:48.691Z,47.40
2019-05-29T01:35:16.168Z,47.40
2019-05-29T01:37:43.632Z,47.50
2019-05-29T01:40:20.011Z,47.50
2019-05-29T01:42:40.283Z,47.60
2019-05-29T01:45:08.706Z,47.70
2019-05-29T01:47:36.462Z,47.70
2019-05-29T01:50:04.521Z,47.70
2019-05-29T01:52:31.977Z,47.70
2019-05-29T01:54:59.449Z,47.70
2019-05-29T01:57:28.011Z,47.70
2019-05-29T01:59:55.562Z,47.70
2019-05-29T02:02:23.956Z,47.80
2019-05-29T02:04:51.471Z,47.80
2019-05-29T02:07:19.962Z,47.90
2019-05-29T02:09:47.486Z,47.90
2019-05-29T02:12:16.182Z,47.80
2019-05-29T02:14:43.777Z,47.90
2019-05-29T02:17:11.928Z,47.90
2019-05-29T02:19:39.412Z,48.00
2019-05-29T02:22:06.874Z,48.00
2019-05-29T02:24:34.342Z,48.00
2019-05-29T02:27:01.805Z,48.00
2019-05-29T02:29:29.286Z,48.00
2019-05-29T02:31:56.761Z,48.00
2019-05-29T02:34:25.575Z,48.00
2019-05-29T02:36:53.415Z,48.00
2019-05-29T02:39:21.540Z,48.10
2019-05-29T02:41:50.063Z,48.00
2019-05-29T02:44:19.023Z,48.20
2019-05-29T02:46:46.686Z,48.10
2019-05-29T02:49:14.221Z,48.10
2019-05-29T02:51:41.681Z,48.10
2019-05-29T02:54:09.148Z,48.10
2019-05-29T02:56:36.617Z,48.30
2019-05-29T02:59:04.085Z,48.20
2019-05-29T03:01:31.863Z,48.20
2019-05-29T03:03:59.398Z,48.10
2019-05-29T03:06:28.057Z,48.20
2019-05-29T03:08:55.603Z,48.20
2019-05-29T03:11:23.713Z,48.20
2019-05-29T03:13:52.265Z,48.20
2019-05-29T03:16:19.749Z,48.30
2019-05-29T03:18:47.217Z,48.20
2019-05-29T03:21:14.712Z,48.20
2019-05-29T03:23:42.235Z,48.20
2019-05-29T03:26:09.708Z,48.20
2019-05-29T03:28:38.275Z,48.40
2019-05-29T03:31:05.957Z,48.40
2019-05-29T03:33:43.640Z,48.20
2019-05-29T03:36:02.695Z,48.40
2019-05-29T03:38:30.429Z,48.30
2019-05-29T03:40:57.982Z,48.20
2019-05-29T03:43:26.173Z,48.30
2019-05-29T03:45:53.688Z,48.30
2019-05-29T03:48:21.143Z,48.20
2019-05-29T03:50:48.631Z,48.20
2019-05-29T03:53:16.124Z,48.40
2019-05-29T03:55:43.592Z,48.50
2019-05-29T03:58:11.049Z,48.50
2019-05-29T04:00:45.574Z,48.50
2019-05-29T04:03:07.756Z,48.40
2019-05-29T04:05:35.541Z,48.60
2019-05-29T04:08:03.626Z,48.60
2019-05-29T04:10:32.981Z,48.80
2019-05-29T04:13:00.928Z,49.00
2019-05-29T04:15:31.512Z,49.10
2019-05-29T04:17:59.081Z,49.10
2019-05-29T04:20:27.528Z,49.30
2019-05-29T04:22:55.103Z,49.40
2019-05-29T04:25:22.571Z,49.30
2019-05-29T04:27:50.311Z,49.40
2019-05-29T04:30:17.819Z,49.40
2019-05-29T04:32:45.282Z,49.20
2019-05-29T04:35:12.748Z,49.30
2019-05-29T04:37:40.304Z,49.40
2019-05-29T04:40:07.940Z,49.40
2019-05-29T04:42:37.369Z,49.50
2019-05-29T04:45:05.722Z,49.40
2019-05-29T04:47:33.820Z,49.60
2019-05-29T04:50:02.718Z,49.80
2019-05-29T04:52:31.408Z,49.90
2019-05-29T04:54:59.103Z,49.80
2019-05-29T04:57:26.569Z,49.80
2019-05-29T04:59:54.039Z,49.60
2019-05-29T05:02:21.778Z,49.60
2019-05-29T05:04:49.298Z,49.70
2019-05-29T05:07:16.766Z,49.60
2019-05-29T05:09:44.234Z,49.40
2019-05-29T05:12:11.722Z,49.40
2019-05-29T05:14:39.829Z,49.40
2019-05-29T05:17:07.424Z,49.30
2019-05-29T05:19:35.877Z,49.30
2019-05-29T05:22:03.430Z,49.30
2019-05-29T05:24:32.059Z,49.20
2019-05-29T05:26:59.637Z,49.20
2019-05-29T05:29:27.096Z,49.10
2019-05-29T05:31:54.570Z,49.10
2019-05-29T05:34:22.038Z,49.10
2019-05-29T05:36:49.507Z,49.00
2019-05-29T05:39:16.974Z,49.10
2019-05-29T05:41:44.442Z,49.00
2019-05-29T05:44:11.908Z,49.00
2019-05-29T05:46:39.389Z,48.90
2019-05-29T05:49:06.846Z,48.90
2019-05-29T05:51:38.133Z,48.90
2019-05-29T05:54:03.515Z,48.90
2019-05-29T05:56:31.428Z,48.90
2019-05-29T05:58:58.910Z,49.00
2019-05-29T06:01:26.374Z,48.90
2019-05-29T06:03:53.851Z,48.90
2019-05-29T06:06:21.309Z,48.90
2019-05-29T06:08:48.778Z,48.90
2019-05-29T06:11:16.247Z,48.90
2019-05-29T06:13:43.713Z,48.80
2019-05-29T06:16:11.178Z,48.80
2019-05-29T06:18:38.648Z,48.80
2019-05-29T06:21:06.122Z,48.80
2019-05-29T06:23:34.693Z,48.80
2019-05-29T06:26:02.335Z,48.80
2019-05-29T06:28:29.810Z,48.80
2019-05-29T06:30:57.270Z,48.90
2019-05-29T06:33:24.747Z,48.90
2019-05-29T06:35:52.214Z,48.90
2019-05-29T06:38:19.686Z,48.90
2019-05-29T06:40:47.149Z,48.90
2019-05-29T06:43:21.761Z,48.80
2019-05-29T06:45:49.225Z,49.40
2019-05-29T06:48:18.324Z,48.80
2019-05-29T06:50:45.786Z,48.80
2019-05-29T06:53:13.257Z,48.80
2019-05-29T06:55:42.137Z,48.80
2019-05-29T06:58:09.678Z,48.80
2019-05-29T07:00:38.091Z,48.70
2019-05-29T07:03:06.331Z,48.70
2019-05-29T07:05:33.803Z,48.70
2019-05-29T07:08:16.493Z,48.70
2019-05-29T07:10:30.476Z,48.60
2019-05-29T07:12:57.941Z,48.60
2019-05-29T07:15:25.411Z,48.60
2019-05-29T07:17:52.892Z,48.50
2019-05-29T07:20:20.349Z,48.50
2019-05-29T07:22:47.831Z,48.60
2019-05-29T07:25:15.295Z,48.60
2019-05-29T07:27:42.914Z,48.50
2019-05-29T07:30:10.411Z,48.50
2019-05-29T07:32:39.243Z,48.40
2019-05-29T07:35:07.116Z,48.50
2019-05-29T07:37:34.582Z,48.40
2019-05-29T07:40:02.046Z,48.40
2019-05-29T07:42:29.501Z,48.50
2019-05-29T07:44:56.970Z,48.40
2019-05-29T07:47:24.430Z,48.30
2019-05-29T07:49:51.902Z,48.30
2019-05-29T07:52:19.368Z,48.20
2019-05-29T07:54:48.028Z,48.40
2019-05-29T07:57:15.668Z,48.30
2019-05-29T07:59:43.145Z,48.30
2019-05-29T08:02:10.613Z,48.20
2019-05-29T08:04:38.883Z,48.30
2019-05-29T08:07:06.423Z,48.30
2019-05-29T08:09:33.894Z,48.40
2019-05-29T08:12:01.377Z,48.40
2019-05-29T08:14:28.915Z,48.30
2019-05-29T08:16:56.375Z,48.30
2019-05-29T08:19:23.853Z,48.20
2019-05-29T08:21:51.325Z,48.30
2019-05-29T08:24:18.798Z,48.40
2019-05-29T08:26:46.818Z,48.40
2019-05-29T08:29:14.416Z,48.30
2019-05-29T08:31:42.765Z,48.40
2019-05-29T08:34:10.331Z,48.30
2019-05-29T08:36:37.806Z,48.30
2019-05-29T08:39:06.310Z,48.20
2019-05-29T08:41:34.028Z,48.30
2019-05-29T08:44:01.650Z,48.40
2019-05-29T08:46:33.026Z,49.00
2019-05-29T08:48:58.363Z,48.40
2019-05-29T08:51:25.840Z,48.40
2019-05-29T08:53:54.759Z,48.30
2019-05-29T08:56:22.450Z,48.40
2019-05-29T08:58:50.684Z,48.50
2019-05-29T09:01:18.295Z,48.40
2019-05-29T09:03:46.763Z,48.40
2019-05-29T09:06:14.371Z,48.40
2019-05-29T09:08:43.726Z,48.40
2019-05-29T09:11:11.048Z,48.30
2019-05-29T09:13:38.511Z,48.30
2019-05-29T09:16:05.982Z,48.30
2019-05-29T09:18:33.442Z,48.20
2019-05-29T09:21:03.639Z,48.20
2019-05-29T09:23:30.106Z,48.20
2019-05-29T09:26:13.639Z,48.10
2019-05-29T09:28:26.315Z,48.10
2019-05-29T09:30:53.787Z,48.10
2019-05-29T09:33:22.026Z,48.20
2019-05-29T09:35:50.841Z,48.10
2019-05-29T09:38:18.838Z,48.10
2019-05-29T09:40:46.460Z,48.10
2019-05-29T09:43:16.153Z,48.20
2019-05-29T09:45:43.122Z,48.10
2019-05-29T09:48:10.603Z,48.20
2019-05-29T09:50:49.652Z,48.20
2019-05-29T09:53:07.269Z,48.10
2019-05-29T09:55:34.735Z,48.00
2019-05-29T09:58:02.749Z,48.00
2019-05-29T10:00:30.262Z,47.90
2019-05-29T10:02:57.814Z,48.00
2019-05-29T10:05:25.270Z,47.80
2019-05-29T10:07:53.145Z,47.80
2019-05-29T10:10:21.906Z,47.80
2019-05-29T10:12:49.353Z,47.80
2019-05-29T10:15:16.825Z,47.90
2019-05-29T10:17:44.287Z,47.90
2019-05-29T10:20:13.454Z,47.90
2019-05-29T10:22:40.974Z,47.90
2019-05-29T10:25:08.448Z,47.80
2019-05-29T10:27:35.909Z,47.80
2019-05-29T10:30:04.342Z,47.80
2019-05-29T10:32:31.829Z,47.80
2019-05-29T10:34:59.290Z,47.80
2019-05-29T10:37:26.766Z,47.70
2019-05-29T10:39:54.224Z,47.80
2019-05-29T10:42:21.710Z,47.80
2019-05-29T10:44:49.341Z,47.80
2019-05-29T10:47:16.811Z,47.90
2019-05-29T10:49:45.469Z,47.80
2019-05-29T10:52:16.739Z,47.80
2019-05-29T10:54:42.231Z,47.70
2019-05-29T10:57:29.132Z,47.70
2019-05-29T10:59:56.655Z,47.60
2019-05-29T11:02:24.159Z,47.70
2019-05-29T11:04:54.959Z,47.70
2019-05-29T11:07:20.858Z,47.70
2019-05-29T11:09:48.586Z,47.70
2019-05-29T11:12:16.168Z,47.70
2019-05-29T11:14:43.630Z,47.90
2019-05-29T11:17:11.085Z,48.00
2019-05-29T11:19:38.562Z,48.00
2019-05-29T11:22:25.118Z,47.90
2019-05-29T11:24:35.256Z,48.00
2019-05-29T11:27:02.759Z,48.10
2019-05-29T11:29:30.291Z,48.10
2019-05-29T11:31:58.881Z,48.20
2019-05-29T11:34:26.506Z,48.30
2019-05-29T11:36:54.301Z,48.40
2019-05-29T11:39:21.747Z,48.40
2019-05-29T11:41:49.209Z,48.40
2019-05-29T11:44:16.726Z,48.40
2019-05-29T11:46:44.419Z,48.20
2019-05-29T11:49:11.886Z,48.10
2019-05-29T11:51:43.508Z,48.10
2019-05-29T11:54:08.565Z,48.00
2019-05-29T11:56:36.023Z,48.00
2019-05-29T11:59:03.505Z,48.00
2019-05-29T12:01:48.623Z,47.80
2019-05-29T12:04:21.949Z,47.80
2019-05-29T12:06:29.415Z,47.70
2019-05-29T12:08:57.957Z,47.60
2019-05-29T12:11:25.518Z,47.60
2019-05-29T12:13:54.195Z,47.70
2019-05-29T12:16:21.954Z,47.70
2019-05-29T12:18:49.410Z,47.60
2019-05-29T12:21:16.884Z,47.50
2019-05-29T12:23:44.421Z,47.60
2019-05-29T12:26:21.744Z,47.60
2019-05-29T12:28:41.078Z,47.50
2019-05-29T12:31:08.609Z,47.70
2019-05-29T12:33:36.069Z,47.60
2019-05-29T12:36:03.611Z,47.90
2019-05-29T12:38:31.066Z,47.90
2019-05-29T12:40:59.801Z,47.70
2019-05-29T12:43:28.186Z,47.90
2019-05-29T12:45:55.821Z,47.80
2019-05-29T12:48:23.281Z,47.80
2019-05-29T12:50:50.750Z,48.60
2019-05-29T12:53:29.730Z,48.80
2019-05-29T12:55:47.398Z,49.20
2019-05-29T12:58:14.867Z,49.70
2019-05-29T13:00:42.333Z,50.10
2019-05-29T13:03:09.868Z,50.10
2019-05-29T13:05:37.339Z,50.10
2019-05-29T13:08:05.249Z,50.60
2019-05-29T13:10:32.846Z,50.80
2019-05-29T13:13:06.971Z,51.10
2019-05-29T13:15:29.518Z,51.40
2019-05-29T13:18:02.425Z,51.80
2019-05-29T13:20:26.168Z,52.50
2019-05-29T13:22:55.352Z,52.30
2019-05-29T13:25:23.100Z,52.20
2019-05-29T13:27:50.643Z,52.40
2019-05-29T13:30:19.741Z,52.50
2019-05-29T13:32:47.347Z,52.60
2019-05-29T13:35:14.883Z,52.80
2019-05-29T13:37:42.342Z,52.90
2019-05-29T13:40:09.817Z,53.00
2019-05-29T13:42:37.274Z,53.20
2019-05-29T13:45:13.497Z,53.30
2019-05-29T13:47:34.547Z,53.40
2019-05-29T13:50:07.516Z,53.30
2019-05-29T13:52:31.975Z,53.30
2019-05-29T13:54:59.429Z,53.30
2019-05-29T13:57:26.903Z,53.50
2019-05-29T13:59:54.368Z,53.60
2019-05-29T14:02:21.901Z,53.80
2019-05-29T14:04:49.374Z,53.90
2019-05-29T14:07:16.847Z,53.90
2019-05-29T14:09:44.302Z,53.90
2019-05-29T14:12:11.839Z,54.00
2019-05-29T14:14:39.302Z,54.30
2019-05-29T14:17:06.778Z,54.40
2019-05-29T14:19:34.235Z,54.30
2019-05-29T14:22:02.893Z,54.50
2019-05-29T14:24:30.736Z,54.50
2019-05-29T14:26:58.314Z,54.60
2019-05-29T14:29:25.786Z,54.70
2019-05-29T14:31:53.244Z,54.70
2019-05-29T14:34:20.720Z,54.50
2019-05-29T14:36:48.186Z,54.50
2019-05-29T14:39:15.670Z,54.30
2019-05-29T14:41:43.152Z,54.40
2019-05-29T14:44:11.940Z,54.20
2019-05-29T14:46:39.521Z,54.90
2019-05-29T14:49:08.347Z,54.30
2019-05-29T14:51:35.941Z,54.50
2019-05-29T14:54:04.643Z,54.50
2019-05-29T14:56:32.309Z,54.60
2019-05-29T14:58:59.803Z,54.70
2019-05-29T15:01:27.273Z,54.80
2019-05-29T15:03:54.743Z,54.90
2019-05-29T15:06:22.206Z,54.90
2019-05-29T15:08:49.678Z,54.80
2019-05-29T15:11:17.147Z,54.90
2019-05-29T15:13:44.623Z,55.10
2019-05-29T15:16:12.866Z,55.20
2019-05-29T15:18:40.452Z,55.10
2019-05-29T15:21:08.992Z,55.30
2019-05-29T15:23:36.562Z,55.40
2019-05-29T15:26:04.098Z,55.50
2019-05-29T15:28:31.570Z,55.50
2019-05-29T15:30:59.061Z,55.60
2019-05-29T15:33:26.591Z,55.70
2019-05-29T15:35:54.062Z,55.80
2019-05-29T15:38:21.555Z,55.70
2019-05-29T15:40:49.102Z,55.70
2019-05-29T15:43:17.195Z,55.80
2019-05-29T15:45:44.867Z,55.70
2019-05-29T15:48:13.133Z,55.80
2019-05-29T15:50:40.714Z,56.00
2019-05-29T15:53:08.888Z,56.10
2019-05-29T15:55:36.428Z,56.10
2019-05-29T15:58:03.878Z,56.00
2019-05-29T16:00:31.544Z,56.10
2019-05-29T16:02:59.127Z,56.10
2019-05-29T16:05:26.607Z,56.10
2019-05-29T16:07:54.068Z,56.10
2019-05-29T16:10:22.615Z,56.10
2019-05-29T16:12:50.319Z,56.10
2019-05-29T16:15:19.267Z,56.20
2019-05-29T16:17:47.019Z,56.20
2019-05-29T16:20:14.601Z,56.50
2019-05-29T16:22:42.123Z,56.60
2019-05-29T16:25:10.739Z,56.60
2019-05-29T16:27:38.408Z,56.60
2019-05-29T16:30:06.533Z,56.60
2019-05-29T16:32:34.027Z,56.50
2019-05-29T16:35:01.495Z,56.70
2019-05-29T16:37:28.955Z,56.70
2019-05-29T16:39:56.427Z,54.10
2019-05-29T16:42:23.880Z,54.90
2019-05-29T16:44:51.403Z,54.30
2019-05-29T16:47:18.924Z,53.40
2019-05-29T16:49:46.647Z,54.30
2019-05-29T16:52:14.930Z,53.90
2019-05-29T16:54:42.608Z,54.20
2019-05-29T16:57:10.202Z,54.20
2019-05-29T16:59:37.684Z,54.50
2019-05-29T17:02:05.234Z,54.50
2019-05-29T17:04:32.702Z,54.50
2019-05-29T17:07:00.171Z,54.90
2019-05-29T17:09:27.647Z,54.90
2019-05-29T17:11:55.109Z,55.20
2019-05-29T17:14:22.911Z,55.50
2019-05-29T17:16:50.442Z,55.40
2019-05-29T17:19:18.569Z,55.70
2019-05-29T17:21:46.063Z,55.80
2019-05-29T17:24:14.617Z,55.90
2019-05-29T17:26:42.190Z,56.20
2019-05-29T17:29:09.645Z,56.30
2019-05-29T17:31:37.119Z,56.30
2019-05-29T17:34:04.582Z,56.50
2019-05-29T17:36:32.054Z,56.50
2019-05-29T17:38:59.514Z,56.70
2019-05-29T17:41:27.063Z,56.80
2019-05-29T17:43:54.529Z,56.90
2019-05-29T17:46:22.020Z,56.90
2019-05-29T17:48:49.503Z,57.10
2019-05-29T17:51:17.507Z,57.20
2019-05-29T17:53:45.339Z,57.30
2019-05-29T17:56:25.361Z,57.90
2019-05-29T17:58:42.270Z,57.40
2019-05-29T18:01:09.806Z,57.40
2019-05-29T18:03:37.274Z,57.40
2019-05-29T18:06:04.737Z,57.50
2019-05-29T18:08:32.202Z,57.60
2019-05-29T18:10:59.670Z,57.70
2019-05-29T18:13:27.463Z,57.70
2019-05-29T18:15:55.004Z,57.80
2019-05-29T18:18:23.472Z,57.80
2019-05-29T18:20:51.007Z,57.80
2019-05-29T18:23:19.843Z,58.50
2019-05-29T18:25:47.423Z,57.90
2019-05-29T18:28:14.893Z,58.00
2019-05-29T18:30:42.369Z,58.00
2019-05-29T18:33:09.906Z,58.00
2019-05-29T18:35:37.390Z,58.00
2019-05-29T18:38:04.857Z,58.10
2019-05-29T18:40:32.587Z,58.10
2019-05-29T18:43:00.075Z,58.10
2019-05-29T18:45:27.941Z,58.10
2019-05-29T18:47:56.590Z,58.10
2019-05-29T18:50:25.453Z,58.20
2019-05-29T18:52:53.101Z,58.10
2019-05-29T18:55:20.847Z,58.10
2019-05-29T18:57:48.422Z,58.10
2019-05-29T19:00:15.961Z,58.10
2019-05-29T19:02:43.425Z,58.20
2019-05-29T19:05:10.894Z,58.20
2019-05-29T19:07:38.363Z,58.20
2019-05-29T19:10:06.864Z,58.20
2019-05-29T19:12:34.618Z,58.20
2019-05-29T19:15:02.069Z,58.10
2019-05-29T19:17:30.086Z,58.20
2019-05-29T19:19:57.583Z,58.20
2019-05-29T19:22:26.245Z,58.20
2019-05-29T19:24:53.783Z,58.10
2019-05-29T19:27:31.049Z,58.10
2019-05-29T19:29:50.430Z,58.10
2019-05-29T19:32:17.900Z,58.00
2019-05-29T19:34:45.374Z,58.00
2019-05-29T19:37:12.842Z,58.00
2019-05-29T19:39:40.371Z,57.90
2019-05-29T19:42:07.843Z,58.10
2019-05-29T19:44:35.390Z,58.00
2019-05-29T19:47:02.876Z,57.90
2019-05-29T19:49:30.900Z,57.80
2019-05-29T19:51:58.757Z,57.80
2019-05-29T19:54:27.346Z,57.80
2019-05-29T19:56:54.922Z,57.80
2019-05-29T19:59:22.757Z,58.00
2019-05-29T20:01:50.264Z,57.80
2019-05-29T20:04:17.714Z,57.70
2019-05-29T20:06:45.186Z,57.70
2019-05-29T20:09:12.679Z,57.80
2019-05-29T20:11:40.315Z,57.60
2019-05-29T20:14:07.850Z,57.70
2019-05-29T20:16:36.247Z,57.80
2019-05-29T20:19:05.402Z,57.80
2019-05-29T20:21:32.879Z,57.80
2019-05-29T20:24:00.363Z,57.60
2019-05-29T20:26:29.114Z,57.50
2019-05-29T20:28:56.644Z,57.50
2019-05-29T20:31:24.124Z,57.70
2019-05-29T20:33:51.582Z,57.50
2019-05-29T20:36:19.292Z,57.30
2019-05-29T20:38:46.770Z,57.70
2019-05-29T20:41:14.235Z,57.50
2019-05-29T20:43:41.989Z,57.20
2019-05-29T20:46:09.490Z,57.10
2019-05-29T20:48:36.949Z,57.20
2019-05-29T20:51:04.414Z,57.40
2019-05-29T20:53:33.292Z,56.90
2019-05-29T20:56:00.869Z,57.10
2019-05-29T20:58:28.337Z,57.00
2019-05-29T21:00:55.822Z,57.10
2019-05-29T21:03:23.412Z,56.80
2019-05-29T21:05:50.870Z,56.90
2019-05-29T21:08:18.345Z,56.90
2019-05-29T21:10:45.807Z,56.90
2019-05-29T21:13:13.274Z,56.90
2019-05-29T21:15:41.815Z,56.90
2019-05-29T21:18:09.397Z,56.90
2019-05-29T21:20:38.241Z,56.70
2019-05-29T21:23:05.802Z,56.60
2019-05-29T21:25:34.489Z,56.80
2019-05-29T21:28:02.678Z,56.90
2019-05-29T21:30:30.166Z,56.70
2019-05-29T21:32:57.682Z,56.50
2019-05-29T21:35:25.141Z,56.30
2019-05-29T21:37:52.609Z,56.80
2019-05-29T21:40:20.072Z,56.40
2019-05-29T21:42:47.537Z,56.20
2019-05-29T21:45:14.997Z,56.30
2019-05-29T21:47:43.595Z,57.20
2019-05-29T21:50:11.119Z,56.30
2019-05-29T21:52:39.447Z,56.30
2019-05-29T21:55:07.135Z,56.10
2019-05-29T21:57:34.601Z,56.10
2019-05-29T22:00:02.087Z,56.20
2019-05-29T22:02:29.558Z,56.40
2019-05-29T22:04:57.014Z,55.70
2019-05-29T22:07:24.478Z,55.80
2019-05-29T22:09:52.290Z,55.60
2019-05-29T22:12:19.790Z,55.70
2019-05-29T22:14:47.251Z,55.60
2019-05-29T22:17:14.714Z,55.40
2019-05-29T22:19:42.181Z,55.60
2019-05-29T22:22:09.659Z,55.60
2019-05-29T22:24:37.142Z,55.40
2019-05-29T22:27:04.606Z,55.50
2019-05-29T22:29:32.065Z,55.60
2019-05-29T22:31:59.593Z,55.30
2019-05-29T22:34:27.078Z,55.30
2019-05-29T22:36:55.456Z,55.40
2019-05-29T22:39:22.977Z,55.30
2019-05-29T22:41:51.447Z,55.60
2019-05-29T22:44:18.993Z,55.30
2019-05-29T22:46:46.457Z,55.30
2019-05-29T22:49:13.921Z,55.20
2019-05-29T22:51:41.389Z,55.30
2019-05-29T22:54:08.853Z,55.30
2019-05-29T22:56:36.326Z,55.20
2019-05-29T22:59:03.790Z,54.90
2019-05-29T23:01:31.261Z,54.50
2019-05-29T23:03:58.721Z,54.90
2019-05-29T23:06:26.184Z,55.10
2019-05-29T23:08:54.129Z,54.60
2019-05-29T23:11:21.706Z,54.50
2019-05-29T23:13:49.159Z,54.80
2019-05-29T23:16:16.638Z,54.60
2019-05-29T23:18:44.103Z,54.30
2019-05-29T23:21:11.602Z,54.30
2019-05-29T23:23:39.066Z,54.20
2019-05-29T23:26:06.626Z,54.50
2019-05-29T23:28:34.082Z,54.20
2019-05-29T23:31:01.585Z,54.50
2019-05-29T23:33:29.318Z,54.50
2019-05-29T23:35:56.980Z,54.50
2019-05-29T23:38:24.462Z,54.60
2019-05-29T23:40:53.118Z,54.50
2019-05-29T23:43:20.929Z,54.90
2019-05-29T23:45:48.386Z,54.90
2019-05-29T23:48:15.926Z,54.90
2019-05-29T23:50:43.402Z,54.80
2019-05-29T23:53:10.865Z,55.50
2019-05-29T23:55:38.341Z,54.80
2019-05-29T23:58:08.220Z,54.80
